Hauptseite
METAR-TAF:

METAR-TAF

Flughäfen :

Maiduguri, Nigeria

Breite: 11-51N, Länge: 013-05E, Höhe: 354 m

METAR: fehlend

Zeit: 02:49 (01:49 UTC)

Prognose

Neuester Wetterbericht von vor 2 Stunden und 49 Minuten, um 23:00 UTC
Gültige Prognose vom 18 um 00 UTC bis 19 um 06 UTC
Wind 10 kt aus Südwest
Sichtweite 10 km oder mehr
Leicht bewölkt in der Höhe von 1200 ft
Zeitweise
vom 18 um 00 UTC bis 18 um 04 UTC
Aufgelockert bewölkt in der Höhe von 1000 ft
Leicht bewölkt in der Höhe von 1900 ft, Kumulonimbus.
Gewitter,

TAF: DNMA 172300Z 1800/1906 22010KT 9999 FEW012 TEMPO 1800/1804 TS SCT010 FEW019CB

Wetterbeobachtungen und Prognosen von mehr als 4000 Flughäfen (METAR und TAF Bericht).

Die verfügbaren Stationen werden durch gelbe und rote Markierungen auf der Karte dargestellt.

Führen Sie die Maus auf sie, um den Namen der Station zu sehen.

Darauf klicken, um die Beobachtung von Wetterbeobachtungen und Prognosen zu sehen.

Um die Karte zu ändern : klicken Sie auf den grünen Tasten mit einem schwarzen Kreuz Zum Vergrößern, auf den grünen Button mit einem Gedankenstrich zu verkleinern, oder auf die grünen Pfeile für benachbarte Karten.


METAR-TAF: